首页
METAR-TAF:

METAR-TAF

机场 :

天寧機場

天宁岛, 马里亚纳群岛, 美国

纬度: 14-59N, 经度: 145-37E, 海拔: 82米

当前天气观测

该预报发布于12小时和26分钟前的08:55 UTC
风速9节,风向
温度 29°C
湿度 79%
气压 1012 hPa
能見度: 11.3公里
散云层高于1700英尺
多云层高于10000英尺
多云层高于15000英尺

METAR: PGWT 150855Z 09009KT 7SM SCT017 BKN100 BKN150 29/25 A2989 RMK LAST

时间: 07:21 (21:21 UTC)

预报

该预报发布于15小时和56分钟前的05:25 UTC
预报有效从15日的 06点(UTC)到 16日的 06点(UTC)
风速14节,风向
能見度: 10公里
散云层高于1900英尺
多云层高于12000英尺
附近有阵雨
从 15日的 0900点(UTC)
风速11节,风向
能見度: 10公里
散云层高于2000英尺
散云层高于4000英尺
附近有阵雨,

TAF: PGWT 150525Z 1506/1606 09014KT P6SM VCSH SCT019 BKN120 FM150900 09011KT P6SM VCSH SCT020 SCT040

超过4000个机场的气象观测和天气预报(METAR&TAF报告)。

可查询的气象台以黄色和红色小点在地图上表示。

将鼠标移到小点上方,可查看气象台名称。

然后点击查看天气观测和预报。

如需切换地图:点击带黑十字的绿色按钮放大地图;点击带横线的绿色按钮缩小地图;或者点击绿色箭头查看邻近地区的地图。


METAR-TAF: